createdAt,value
2023-02-12T00:01:41.246Z,24.90
2023-02-12T00:04:10.111Z,28.00
2023-02-12T00:06:40.472Z,25.80
2023-02-12T00:09:08.954Z,24.10
2023-02-12T00:11:38.950Z,24.40
2023-02-12T00:14:07.689Z,21.60
2023-02-12T00:16:37.711Z,24.00
2023-02-12T00:19:06.202Z,21.70
2023-02-12T00:21:35.776Z,22.90
2023-02-12T00:24:04.872Z,26.10
2023-02-12T00:26:33.899Z,22.30
2023-02-12T00:29:02.761Z,23.00
2023-02-12T00:31:31.799Z,23.40
2023-02-12T00:34:00.800Z,21.50
2023-02-12T00:36:30.641Z,21.80
2023-02-12T00:39:00.030Z,28.20
2023-02-12T00:41:28.639Z,26.60
2023-02-12T00:43:57.206Z,24.40
2023-02-12T00:46:25.919Z,23.00
2023-02-12T00:48:55.414Z,18.60
2023-02-12T00:51:24.489Z,20.40
2023-02-12T00:53:54.042Z,20.10
2023-02-12T00:56:23.134Z,21.00
2023-02-12T00:58:51.580Z,23.50
2023-02-12T01:01:20.173Z,22.50
2023-02-12T01:03:48.735Z,22.70
2023-02-12T01:06:17.528Z,24.20
2023-02-12T01:08:51.764Z,22.40
2023-02-12T01:11:20.654Z,21.30
2023-02-12T01:13:51.694Z,19.50
2023-02-12T01:16:23.113Z,22.40
2023-02-12T01:18:55.498Z,21.40
2023-02-12T01:21:29.661Z,22.00
2023-02-12T01:23:58.231Z,19.70
2023-02-12T01:26:26.922Z,19.70
2023-02-12T01:29:02.598Z,22.50
2023-02-12T01:31:33.064Z,22.90
2023-02-12T01:34:02.395Z,16.70
2023-02-12T01:36:32.875Z,18.40
2023-02-12T01:39:03.167Z,18.30
2023-02-12T01:41:36.573Z,18.60
2023-02-12T01:44:17.311Z,15.70
2023-02-12T01:49:32.561Z,15.80
2023-02-12T01:52:11.747Z,18.80
2023-02-12T01:54:41.321Z,19.00
2023-02-12T01:57:10.518Z,17.20
2023-02-12T01:59:41.087Z,18.70
2023-02-12T02:02:09.740Z,17.30
2023-02-12T02:04:45.968Z,16.90
2023-02-12T02:07:18.895Z,17.20
2023-02-12T02:09:47.753Z,15.30
2023-02-12T02:12:34.843Z,20.00
2023-02-12T02:15:05.697Z,16.90
2023-02-12T02:17:53.758Z,18.50
2023-02-12T02:20:43.119Z,17.00
2023-02-12T02:23:29.866Z,17.00
2023-02-12T02:26:16.644Z,16.80
2023-02-12T02:28:54.483Z,15.20
2023-02-12T02:31:38.398Z,17.20
2023-02-12T02:34:24.267Z,16.80
2023-02-12T02:37:00.909Z,17.00
2023-02-12T02:39:39.086Z,15.50
2023-02-12T02:42:11.861Z,19.30
2023-02-12T02:44:57.225Z,15.90
2023-02-12T02:47:31.700Z,16.20
2023-02-12T02:50:06.803Z,17.70
2023-02-12T02:52:52.786Z,18.50
2023-02-12T02:55:22.543Z,16.60
2023-02-12T02:58:03.273Z,16.80
2023-02-12T03:00:36.144Z,17.80
2023-02-12T03:03:43.924Z,20.30
2023-02-12T03:06:33.248Z,20.00
2023-02-12T03:09:10.141Z,17.50
2023-02-12T03:11:38.609Z,17.30
2023-02-12T03:14:17.650Z,17.10
2023-02-12T03:17:12.024Z,18.00
2023-02-12T03:19:47.152Z,16.50
2023-02-12T03:22:18.938Z,18.10
2023-02-12T03:24:51.807Z,17.60
2023-02-12T03:27:22.911Z,16.30
2023-02-12T03:29:51.891Z,17.50
2023-02-12T03:33:01.691Z,18.20
2023-02-12T03:35:36.147Z,15.70
2023-02-12T03:38:16.957Z,15.60
2023-02-12T03:41:17.159Z,17.60
2023-02-12T03:44:02.139Z,19.00
2023-02-12T03:46:39.647Z,19.00
2023-02-12T03:49:12.251Z,20.10
2023-02-12T03:51:42.169Z,19.50
2023-02-12T03:54:11.448Z,20.10
2023-02-12T03:56:45.835Z,16.30
2023-02-12T03:59:14.254Z,24.60
2023-02-12T04:01:43.113Z,18.60
2023-02-12T04:04:11.881Z,19.00
2023-02-12T04:06:41.953Z,17.10
2023-02-12T04:09:11.608Z,20.20
2023-02-12T04:11:59.076Z,19.60
2023-02-12T04:15:05.930Z,17.00
2023-02-12T04:17:59.633Z,20.00
2023-02-12T04:20:53.982Z,22.90
2023-02-12T04:23:33.857Z,21.00
2023-02-12T04:26:21.220Z,21.80
2023-02-12T04:28:57.345Z,21.00
2023-02-12T04:31:32.059Z,20.00
2023-02-12T04:34:10.420Z,16.80
2023-02-12T04:37:07.806Z,20.20
2023-02-12T04:39:37.897Z,20.10
2023-02-12T04:42:07.478Z,27.60
2023-02-12T04:44:42.169Z,21.60
2023-02-12T04:47:14.384Z,20.30
2023-02-12T04:49:43.440Z,23.80
2023-02-12T04:52:11.879Z,23.90
2023-02-12T04:54:40.366Z,23.50
2023-02-12T04:57:09.623Z,23.40
2023-02-12T04:59:39.336Z,25.30
2023-02-12T05:02:08.042Z,21.00
2023-02-12T05:04:37.266Z,20.30
2023-02-12T05:07:05.725Z,26.00
2023-02-12T05:09:34.171Z,20.60
2023-02-12T05:12:07.887Z,23.00
2023-02-12T05:14:36.517Z,21.70
2023-02-12T05:17:05.148Z,20.40
2023-02-12T05:19:37.598Z,19.90
2023-02-12T05:22:06.125Z,24.70
2023-02-12T05:24:34.592Z,22.10
2023-02-12T05:27:03.878Z,22.10
2023-02-12T05:29:32.512Z,23.20
2023-02-12T05:32:01.197Z,21.00
2023-02-12T05:34:30.161Z,21.80
2023-02-12T05:36:59.077Z,27.10
2023-02-12T05:39:27.708Z,23.60
2023-02-12T05:41:56.456Z,20.80
2023-02-12T05:44:24.907Z,22.70
2023-02-12T05:46:53.373Z,22.00
2023-02-12T05:49:21.801Z,25.70
2023-02-12T05:51:50.358Z,23.70
2023-02-12T05:54:19.318Z,23.70
2023-02-12T05:56:47.919Z,48.20
2023-02-12T05:59:18.995Z,28.30
2023-02-12T06:01:48.527Z,27.60
2023-02-12T06:04:19.534Z,27.20
2023-02-12T06:06:50.965Z,27.70
2023-02-12T06:09:19.713Z,25.10
2023-02-12T06:11:50.561Z,24.30
2023-02-12T06:14:20.262Z,25.60
2023-02-12T06:16:53.399Z,23.60
2023-02-12T06:19:22.336Z,26.00
2023-02-12T06:21:50.821Z,23.40
2023-02-12T06:24:19.678Z,25.80
2023-02-12T06:26:50.204Z,21.90
2023-02-12T06:29:22.062Z,24.60
2023-02-12T06:31:50.617Z,25.00
2023-02-12T06:34:19.430Z,23.20
2023-02-12T06:36:48.244Z,27.90
2023-02-12T06:39:17.268Z,24.80
2023-02-12T06:41:45.866Z,26.60
2023-02-12T06:44:14.397Z,26.40
2023-02-12T06:46:42.906Z,26.90
2023-02-12T06:49:13.089Z,24.30
2023-02-12T06:51:41.579Z,23.80
2023-02-12T06:54:14.531Z,23.70
2023-02-12T06:56:45.405Z,25.10
2023-02-12T06:59:15.571Z,25.30
2023-02-12T07:01:46.481Z,25.50
2023-02-12T07:04:16.057Z,24.60
2023-02-12T07:06:45.079Z,26.80
2023-02-12T07:09:14.131Z,28.90
2023-02-12T07:11:42.830Z,32.50
2023-02-12T07:14:15.987Z,31.60
2023-02-12T07:16:44.893Z,28.20
2023-02-12T07:19:14.673Z,28.60
2023-02-12T07:21:43.428Z,30.50
2023-02-12T07:24:19.897Z,30.30
2023-02-12T07:26:48.549Z,30.90
2023-02-12T07:29:17.400Z,30.10
2023-02-12T07:31:46.906Z,32.00
2023-02-12T07:34:15.505Z,30.90
2023-02-12T07:36:47.195Z,30.90
2023-02-12T07:39:16.277Z,28.70
2023-02-12T07:41:45.242Z,26.80
2023-02-12T07:44:16.299Z,36.20
2023-02-12T07:46:48.299Z,24.70
2023-02-12T07:49:22.001Z,23.90
2023-02-12T07:51:50.665Z,19.70
2023-02-12T07:54:19.510Z,14.40
2023-02-12T07:56:48.225Z,19.20
2023-02-12T07:59:18.459Z,25.70
2023-02-12T08:01:48.695Z,26.90
2023-02-12T08:04:19.448Z,19.80
2023-02-12T08:06:50.073Z,25.80
2023-02-12T08:09:25.346Z,25.20
2023-02-12T08:11:53.928Z,24.10
2023-02-12T08:14:23.102Z,28.00
2023-02-12T08:16:51.722Z,19.90
2023-02-12T08:19:24.926Z,28.20
2023-02-12T08:21:55.882Z,15.90
2023-02-12T08:24:25.133Z,33.60
2023-02-12T08:26:53.844Z,37.50
2023-02-12T08:29:25.638Z,21.80
2023-02-12T08:31:59.762Z,9.70
2023-02-12T08:34:30.608Z,12.90
2023-02-12T08:36:59.478Z,16.40
2023-02-12T08:39:29.338Z,12.00
2023-02-12T08:42:00.353Z,17.80
2023-02-12T08:44:29.623Z,7.70
2023-02-12T08:46:58.776Z,15.60
2023-02-12T08:49:29.173Z,7.00
2023-02-12T08:51:58.454Z,3.50
2023-02-12T08:54:30.103Z,6.40
2023-02-12T08:57:01.272Z,4.80
2023-02-12T08:59:30.035Z,5.90
2023-02-12T09:02:01.264Z,8.10
2023-02-12T09:04:31.499Z,9.60
2023-02-12T09:07:00.088Z,8.10
2023-02-12T09:09:28.647Z,4.70
2023-02-12T09:12:01.177Z,8.00
2023-02-12T09:14:30.349Z,14.20
2023-02-12T09:16:58.884Z,18.00
2023-02-12T09:19:27.766Z,13.30
2023-02-12T09:21:57.112Z,8.80
2023-02-12T09:24:27.981Z,5.90
2023-02-12T09:26:57.638Z,12.70
2023-02-12T09:29:26.120Z,5.90
2023-02-12T09:31:54.941Z,5.90
2023-02-12T09:34:25.076Z,35.40
2023-02-12T09:36:54.415Z,13.00
2023-02-12T09:39:23.579Z,18.20
2023-02-12T09:41:57.834Z,5.20
2023-02-12T09:44:38.212Z,6.00
2023-02-12T09:47:09.642Z,4.20
2023-02-12T09:50:18.507Z,5.20
2023-02-12T09:52:47.993Z,4.00
2023-02-12T09:55:17.230Z,4.00
2023-02-12T09:57:45.803Z,6.20
2023-02-12T10:00:31.916Z,5.90
2023-02-12T10:03:05.138Z,18.40
2023-02-12T10:05:42.264Z,17.80
2023-02-12T10:08:46.326Z,8.70
2023-02-12T10:11:18.410Z,17.10
2023-02-12T10:13:54.191Z,23.80
2023-02-12T10:16:44.250Z,49.70
2023-02-12T10:19:50.173Z,16.20
2023-02-12T10:22:25.399Z,3.40
2023-02-12T10:25:03.374Z,18.80
2023-02-12T10:27:46.409Z,2.60
2023-02-12T10:30:47.476Z,7.30
2023-02-12T10:33:22.126Z,70.20
2023-02-12T10:35:53.834Z,7.10
2023-02-12T10:38:26.374Z,4.20
2023-02-12T10:40:57.967Z,1.50
2023-02-12T10:43:26.658Z,3.60
2023-02-12T10:45:55.450Z,3.20
2023-02-12T10:48:37.001Z,6.70
2023-02-12T10:51:17.568Z,19.90
2023-02-12T10:53:46.498Z,12.90
2023-02-12T10:56:25.066Z,7.30
2023-02-12T10:58:56.128Z,11.50
2023-02-12T11:01:31.315Z,20.10
2023-02-12T11:04:01.848Z,5.10
2023-02-12T11:06:33.102Z,4.00
2023-02-12T11:09:01.886Z,11.20
2023-02-12T11:11:31.652Z,9.20
2023-02-12T11:14:04.186Z,7.00
2023-02-12T11:16:41.672Z,13.30
2023-02-12T11:19:22.216Z,9.90
2023-02-12T11:21:51.736Z,6.90
2023-02-12T11:24:38.390Z,6.90
2023-02-12T11:27:15.984Z,3.40
2023-02-12T11:29:49.171Z,4.80
2023-02-12T11:32:19.236Z,9.90
2023-02-12T11:35:10.630Z,14.10
2023-02-12T11:37:46.349Z,8.80
2023-02-12T11:40:23.706Z,22.90
2023-02-12T11:42:55.047Z,16.40
2023-02-12T11:45:28.578Z,8.30
2023-02-12T11:47:57.070Z,5.20
2023-02-12T11:50:28.638Z,4.10
2023-02-12T11:53:02.417Z,4.30
2023-02-12T11:55:36.347Z,3.20
2023-02-12T11:58:20.776Z,4.60
2023-02-12T12:01:08.190Z,2.10
2023-02-12T12:04:08.151Z,5.40
2023-02-12T12:07:20.547Z,5.80
2023-02-12T12:10:16.819Z,4.20
2023-02-12T12:12:57.802Z,5.20
2023-02-12T12:15:53.024Z,6.30
2023-02-12T12:19:03.305Z,16.70
2023-02-12T12:24:23.164Z,2.60
2023-02-12T12:27:03.536Z,2.50
2023-02-12T12:29:50.154Z,3.10
2023-02-12T12:32:18.887Z,2.60
2023-02-12T12:34:47.745Z,2.90
2023-02-12T12:37:33.677Z,7.30
2023-02-12T12:40:33.818Z,5.80
2023-02-12T12:43:11.052Z,8.30
2023-02-12T12:45:54.651Z,20.70
2023-02-12T12:48:32.174Z,12.80
2023-02-12T12:51:00.796Z,10.80
2023-02-12T12:53:48.047Z,5.40
2023-02-12T12:56:26.973Z,10.20
2023-02-12T12:59:13.651Z,30.50
2023-02-12T13:01:42.087Z,20.00
2023-02-12T13:04:23.001Z,28.80
2023-02-12T13:07:09.744Z,19.20
2023-02-12T13:09:57.686Z,15.40
2023-02-12T13:12:58.122Z,8.60
2023-02-12T13:15:46.144Z,5.60
2023-02-12T13:18:19.264Z,4.30
2023-02-12T13:20:59.136Z,10.20
2023-02-12T13:23:30.458Z,19.40
2023-02-12T13:26:02.196Z,4.70
2023-02-12T13:28:38.075Z,4.90
2023-02-12T13:31:32.022Z,6.10
2023-02-12T13:34:06.277Z,16.50
2023-02-12T13:36:36.623Z,17.10
2023-02-12T13:39:25.542Z,11.80
2023-02-12T13:42:27.438Z,3.90
2023-02-12T13:45:01.903Z,5.20
2023-02-12T13:47:34.398Z,3.80
2023-02-12T13:50:35.353Z,7.40
2023-02-12T13:53:17.342Z,3.30
2023-02-12T13:56:10.292Z,3.20
2023-02-12T13:58:50.702Z,5.80
2023-02-12T14:01:43.754Z,3.30
2023-02-12T14:04:24.954Z,9.00
2023-02-12T14:07:05.392Z,12.40
2023-02-12T14:09:47.027Z,20.00
2023-02-12T14:12:26.129Z,15.20
2023-02-12T14:14:57.107Z,9.50
2023-02-12T14:17:29.282Z,10.40
2023-02-12T14:20:21.158Z,6.30
2023-02-12T14:22:50.077Z,4.80
2023-02-12T14:25:24.320Z,4.60
2023-02-12T14:28:07.976Z,3.50
2023-02-12T14:30:39.896Z,5.10
2023-02-12T14:33:21.736Z,7.30
2023-02-12T14:36:10.525Z,10.60
2023-02-12T14:38:47.600Z,7.80
2023-02-12T14:41:34.310Z,6.80
2023-02-12T14:44:27.740Z,6.60
2023-02-12T14:47:00.628Z,2.30
2023-02-12T14:49:34.909Z,3.60
2023-02-12T14:52:14.988Z,3.60
2023-02-12T14:54:43.415Z,7.40
2023-02-12T14:57:27.190Z,3.20
2023-02-12T14:59:59.958Z,2.60
2023-02-12T15:02:29.690Z,4.10
2023-02-12T15:05:03.042Z,8.10
2023-02-12T15:07:43.973Z,8.10
2023-02-12T15:10:34.254Z,5.80
2023-02-12T15:13:02.689Z,8.60
2023-02-12T15:15:47.916Z,7.20
2023-02-12T15:18:22.213Z,4.50
2023-02-12T15:20:59.832Z,5.30
2023-02-12T15:23:37.789Z,4.50
2023-02-12T15:26:07.467Z,5.70
2023-02-12T15:28:37.779Z,13.60
2023-02-12T15:31:10.875Z,9.60
2023-02-12T15:33:46.469Z,6.90
2023-02-12T15:36:19.577Z,8.40
2023-02-12T15:38:53.008Z,12.90
2023-02-12T15:41:33.967Z,6.70
2023-02-12T15:44:04.936Z,4.90
2023-02-12T15:46:34.172Z,18.20
2023-02-12T15:49:19.181Z,7.50
2023-02-12T15:51:47.725Z,13.30
2023-02-12T15:54:16.702Z,18.00
2023-02-12T15:56:45.108Z,9.90
2023-02-12T15:59:22.534Z,8.90
2023-02-12T16:02:30.172Z,8.00
2023-02-12T16:04:59.208Z,4.80
2023-02-12T16:07:29.903Z,7.40
2023-02-12T16:10:00.984Z,10.00
2023-02-12T16:12:31.668Z,14.80
2023-02-12T16:15:03.682Z,25.70
2023-02-12T16:17:37.187Z,29.40
2023-02-12T16:20:20.903Z,20.90
2023-02-12T16:22:50.063Z,15.00
2023-02-12T16:25:32.747Z,30.70
2023-02-12T16:28:21.260Z,15.30
2023-02-12T16:30:50.021Z,26.40
2023-02-12T16:33:59.546Z,22.40
2023-02-12T16:36:30.707Z,20.10
2023-02-12T16:39:04.734Z,14.20
2023-02-12T16:41:34.499Z,25.60
2023-02-12T16:44:03.513Z,20.40
2023-02-12T16:46:33.559Z,18.60
2023-02-12T16:49:02.148Z,14.00
2023-02-12T16:51:32.553Z,17.50
2023-02-12T16:54:03.014Z,15.70
2023-02-12T16:56:34.554Z,22.70
2023-02-12T16:59:03.180Z,15.10
2023-02-12T17:01:34.148Z,9.40
2023-02-12T17:04:08.163Z,8.90
2023-02-12T17:06:36.715Z,10.70
2023-02-12T17:09:05.432Z,13.90
2023-02-12T17:11:33.910Z,15.00
2023-02-12T17:14:02.533Z,14.00
2023-02-12T17:16:32.328Z,16.30
2023-02-12T17:19:06.988Z,14.90
2023-02-12T17:21:39.870Z,12.80
2023-02-12T17:24:22.496Z,9.60
2023-02-12T17:26:51.480Z,5.30
2023-02-12T17:29:21.047Z,13.60
2023-02-12T17:31:50.507Z,12.00
2023-02-12T17:34:19.200Z,11.30
2023-02-12T17:36:48.039Z,14.50
2023-02-12T17:39:16.895Z,9.50
2023-02-12T17:41:46.487Z,8.70
2023-02-12T17:44:15.847Z,6.80
2023-02-12T17:46:45.561Z,7.70
2023-02-12T17:49:13.996Z,6.50
2023-02-12T17:51:43.644Z,16.70
2023-02-12T17:54:12.651Z,11.60
2023-02-12T17:56:41.818Z,3.70
2023-02-12T17:59:10.514Z,6.70
2023-02-12T18:01:40.621Z,6.50
2023-02-12T18:04:09.662Z,8.10
2023-02-12T18:06:39.334Z,15.50
2023-02-12T18:09:07.786Z,13.20
2023-02-12T18:11:38.255Z,8.00
2023-02-12T18:14:06.714Z,21.90
2023-02-12T18:16:36.734Z,15.30
2023-02-12T18:19:06.061Z,11.10
2023-02-12T18:21:35.261Z,14.40
2023-02-12T18:24:04.286Z,18.30
2023-02-12T18:26:33.190Z,15.20
2023-02-12T18:29:01.975Z,29.20
2023-02-12T18:31:30.891Z,18.80
2023-02-12T18:34:00.220Z,34.10
2023-02-12T18:36:30.442Z,34.60
2023-02-12T18:39:02.732Z,16.70
2023-02-12T18:41:32.336Z,10.50
2023-02-12T18:44:01.225Z,11.20
2023-02-12T18:46:30.976Z,19.20
2023-02-12T18:48:59.629Z,17.70
2023-02-12T18:51:29.879Z,16.00
2023-02-12T18:54:03.049Z,21.50
2023-02-12T18:56:34.549Z,9.80
2023-02-12T18:59:05.276Z,21.90
2023-02-12T19:01:35.052Z,17.30
2023-02-12T19:04:04.885Z,15.20
2023-02-12T19:06:34.617Z,16.90
2023-02-12T19:09:05.015Z,11.70
2023-02-12T19:11:35.154Z,10.30
2023-02-12T19:14:03.832Z,12.60
2023-02-12T19:16:33.759Z,11.70
2023-02-12T19:19:03.234Z,9.20
2023-02-12T19:21:32.700Z,7.00
2023-02-12T19:24:02.244Z,5.60
2023-02-12T19:26:31.893Z,9.40
2023-02-12T19:29:01.323Z,7.90
2023-02-12T19:31:41.189Z,12.00
2023-02-12T19:34:17.316Z,4.10
2023-02-12T19:36:46.443Z,5.00
2023-02-12T19:39:16.973Z,6.60
2023-02-12T19:41:47.267Z,9.50
2023-02-12T19:44:20.707Z,5.30
2023-02-12T19:46:49.242Z,3.90
2023-02-12T19:49:20.238Z,8.40
2023-02-12T19:51:48.970Z,7.40
2023-02-12T19:54:18.188Z,6.80
2023-02-12T19:56:46.714Z,3.00
2023-02-12T19:59:17.575Z,6.40
2023-02-12T20:01:47.184Z,6.20
2023-02-12T20:04:18.916Z,5.70
2023-02-12T20:06:47.760Z,5.60
2023-02-12T20:09:17.067Z,11.40
2023-02-12T20:11:45.626Z,31.70
2023-02-12T20:14:14.372Z,31.80
2023-02-12T20:16:44.942Z,30.00
2023-02-12T20:19:25.039Z,28.80
2023-02-12T20:21:56.135Z,17.50
2023-02-12T20:24:29.935Z,10.10
2023-02-12T20:26:59.748Z,6.10
2023-02-12T20:29:29.075Z,14.50
2023-02-12T20:31:57.686Z,36.30
2023-02-12T20:34:26.451Z,36.20
2023-02-12T20:36:55.081Z,25.60
2023-02-12T20:39:24.621Z,20.60
2023-02-12T20:41:54.454Z,17.70
2023-02-12T20:44:23.310Z,17.30
2023-02-12T20:46:56.411Z,24.10
2023-02-12T20:49:26.344Z,10.20
2023-02-12T20:51:54.971Z,11.60
2023-02-12T20:54:26.177Z,20.90
2023-02-12T20:56:55.289Z,16.50
2023-02-12T20:59:23.769Z,31.50
2023-02-12T21:01:52.746Z,10.40
2023-02-12T21:04:21.544Z,27.10
2023-02-12T21:06:50.060Z,15.00
2023-02-12T21:09:20.096Z,20.40
2023-02-12T21:11:49.736Z,23.90
2023-02-12T21:14:22.330Z,31.50
2023-02-12T21:16:55.826Z,22.00
2023-02-12T21:19:25.940Z,23.60
2023-02-12T21:21:54.864Z,22.50
2023-02-12T21:24:26.423Z,26.90
2023-02-12T21:26:55.578Z,17.00
2023-02-12T21:29:27.739Z,18.20
2023-02-12T21:31:57.120Z,8.70
2023-02-12T21:34:25.858Z,8.10
2023-02-12T21:36:55.584Z,14.40
2023-02-12T21:39:27.783Z,9.40
2023-02-12T21:42:03.206Z,7.00
2023-02-12T21:44:35.549Z,7.60
2023-02-12T21:47:04.699Z,7.80
2023-02-12T21:49:33.679Z,7.00
2023-02-12T21:52:06.966Z,4.60
2023-02-12T21:54:35.537Z,8.20
2023-02-12T21:57:04.076Z,7.50
2023-02-12T21:59:32.748Z,9.10
2023-02-12T22:02:02.323Z,6.50
2023-02-12T22:04:33.528Z,10.80
2023-02-12T22:07:03.775Z,11.00
2023-02-12T22:09:35.638Z,9.80
2023-02-12T22:12:05.435Z,12.70
2023-02-12T22:14:37.300Z,14.30
2023-02-12T22:17:06.107Z,9.70
2023-02-12T22:19:35.138Z,10.60
2023-02-12T22:22:03.885Z,8.40
2023-02-12T22:24:32.876Z,5.80
2023-02-12T22:27:01.261Z,6.10
2023-02-12T22:29:30.114Z,4.20
2023-02-12T22:31:58.745Z,2.20
2023-02-12T22:34:27.668Z,7.60
2023-02-12T22:36:56.112Z,3.30
2023-02-12T22:39:24.769Z,4.50
2023-02-12T22:41:53.630Z,3.00
2023-02-12T22:44:22.527Z,5.40
2023-02-12T22:46:51.204Z,5.20
2023-02-12T22:49:20.087Z,4.20
2023-02-12T22:51:48.550Z,7.50
2023-02-12T22:54:18.436Z,4.40
2023-02-12T22:56:50.271Z,8.50
2023-02-12T22:59:18.867Z,9.30
2023-02-12T23:01:47.747Z,8.50
2023-02-12T23:04:18.073Z,8.80
2023-02-12T23:06:46.756Z,6.90
2023-02-12T23:09:19.293Z,5.60
2023-02-12T23:11:48.265Z,6.80
2023-02-12T23:14:17.990Z,9.50
2023-02-12T23:16:47.919Z,6.10
2023-02-12T23:19:16.442Z,4.10
2023-02-12T23:21:45.245Z,7.10
2023-02-12T23:24:15.261Z,4.80
2023-02-12T23:26:44.743Z,3.60
2023-02-12T23:29:13.332Z,4.60
2023-02-12T23:31:41.978Z,3.50
2023-02-12T23:34:10.839Z,5.10
2023-02-12T23:36:39.305Z,3.00
2023-02-12T23:39:09.652Z,5.10
2023-02-12T23:41:38.393Z,4.70
2023-02-12T23:44:07.478Z,3.70
2023-02-12T23:46:36.034Z,9.10
2023-02-12T23:49:04.888Z,2.10
2023-02-12T23:51:33.542Z,4.20
2023-02-12T23:54:03.284Z,4.30
2023-02-12T23:56:32.372Z,4.90
2023-02-12T23:59:01.803Z,6.30
